首页
METAR-TAF:

METAR-TAF

机场 :

默伦, 法国

纬度: 48-37N, 经度: 002-41E, 海拔: 95米

当前天气观测

该预报发布于16分钟前的19:30 UTC
风速9节,风向南转西南
温度 11°C
湿度 87%
气压 1011 hPa
能见度10公里或以上
少量云层高于3900英尺
多云层高于5600英尺
多云层高于7000英尺

METAR: LFPM 151930Z AUTO 21009KT 9999 FEW039 BKN056 BKN070 11/09 Q1011

时间: 21:46 (19:46 UTC)


TAF: 丢失

超过4000个机场的气象观测和天气预报(METAR&TAF报告)。

可查询的气象台以黄色和红色小点在地图上表示。

将鼠标移到小点上方,可查看气象台名称。

然后点击查看天气观测和预报。

如需切换地图:点击带黑十字的绿色按钮放大地图;点击带横线的绿色按钮缩小地图;或者点击绿色箭头查看邻近地区的地图。


METAR-TAF: